createdAt,value
2018-05-10T00:00:34.910Z,97286.84
2018-05-10T00:03:01.610Z,97294.82
2018-05-10T00:05:28.778Z,97295.20
2018-05-10T00:07:55.289Z,97290.97
2018-05-10T00:10:21.688Z,97292.95
2018-05-10T00:12:48.079Z,97294.34
2018-05-10T00:15:14.910Z,97291.56
2018-05-10T00:17:41.336Z,97293.28
2018-05-10T00:20:07.894Z,97294.41
2018-05-10T00:22:34.618Z,97288.84
2018-05-10T00:25:01.047Z,97287.11
2018-05-10T00:27:28.516Z,97281.13
2018-05-10T00:29:54.926Z,97282.18
2018-05-10T00:32:22.398Z,97282.23
2018-05-10T00:34:48.854Z,97276.94
2018-05-10T00:37:15.241Z,97280.27
2018-05-10T00:39:42.344Z,97280.64
2018-05-10T00:42:08.830Z,97280.58
2018-05-10T00:44:36.007Z,97279.42
2018-05-10T00:47:03.065Z,97275.77
2018-05-10T00:49:29.782Z,97277.12
2018-05-10T00:51:56.214Z,97270.81
2018-05-10T00:54:42.106Z,97272.70
2018-05-10T00:57:08.546Z,97272.56
2018-05-10T00:59:35.036Z,97268.12
2018-05-10T01:02:01.585Z,97271.16
2018-05-10T01:04:27.963Z,97270.81
2018-05-10T01:06:54.414Z,97267.06
2018-05-10T01:09:20.868Z,97271.78
2018-05-10T01:11:47.250Z,97271.69
2018-05-10T01:14:13.728Z,97278.77
2018-05-10T01:16:40.142Z,97277.36
2018-05-10T01:19:06.652Z,97281.52
2018-05-10T01:21:33.074Z,97279.39
2018-05-10T01:23:59.499Z,97284.06
2018-05-10T01:26:26.674Z,97285.54
2018-05-10T01:28:53.068Z,97287.81
2018-05-10T01:31:20.211Z,97289.19
2018-05-10T01:33:46.653Z,97286.06
2018-05-10T01:36:15.752Z,97292.66
2018-05-10T01:38:42.962Z,97288.76
2018-05-10T01:41:09.394Z,97289.94
2018-05-10T01:43:35.800Z,97286.27
2018-05-10T01:46:02.266Z,97284.92
2018-05-10T01:48:28.730Z,97288.04
2018-05-10T01:50:55.927Z,97288.14
2018-05-10T01:53:22.334Z,97285.09
2018-05-10T01:55:48.801Z,97281.92
2018-05-10T01:58:15.275Z,97280.37
2018-05-10T02:00:41.699Z,97281.95
2018-05-10T02:03:08.763Z,97279.80
2018-05-10T02:05:35.516Z,97286.84
2018-05-10T02:08:02.665Z,97285.10
2018-05-10T02:10:29.081Z,97288.11
2018-05-10T02:12:56.211Z,97289.56
2018-05-10T02:15:23.026Z,97295.89
2018-05-10T02:17:49.736Z,97298.80
2018-05-10T02:20:16.300Z,97298.88
2018-05-10T02:22:43.485Z,97300.35
2018-05-10T02:25:09.884Z,97298.55
2018-05-10T02:27:36.343Z,97298.26
2018-05-10T02:30:02.906Z,97307.59
2018-05-10T02:32:30.078Z,97301.33
2018-05-10T02:34:56.593Z,97308.33
2018-05-10T02:37:23.758Z,97316.19
2018-05-10T02:39:50.398Z,97319.11
2018-05-10T02:42:16.834Z,97315.66
2018-05-10T02:44:43.508Z,97317.34
2018-05-10T02:47:09.980Z,97323.75
2018-05-10T02:49:37.208Z,97322.77
2018-05-10T02:52:03.738Z,97321.14
2018-05-10T02:54:31.035Z,97324.14
2018-05-10T02:56:57.486Z,97329.59
2018-05-10T02:59:23.960Z,97328.97
2018-05-10T03:01:50.413Z,97329.05
2018-05-10T03:04:17.582Z,97335.24
2018-05-10T03:06:45.151Z,97338.94
2018-05-10T03:09:11.650Z,97348.36
2018-05-10T03:11:38.051Z,97349.75
2018-05-10T03:14:05.854Z,97352.05
2018-05-10T03:16:33.020Z,97349.34
2018-05-10T03:19:00.270Z,97352.55
2018-05-10T03:21:27.422Z,97351.38
2018-05-10T03:23:54.620Z,97350.55
2018-05-10T03:26:21.004Z,97354.30
2018-05-10T03:28:48.478Z,97351.42
2018-05-10T03:31:14.985Z,97354.95
2018-05-10T03:33:42.215Z,97353.23
2018-05-10T03:36:08.826Z,97351.70
2018-05-10T03:38:35.530Z,97351.32
2018-05-10T03:41:01.997Z,97347.02
2018-05-10T03:43:28.461Z,97348.64
2018-05-10T03:45:54.901Z,97357.48
2018-05-10T03:48:21.411Z,97356.17
2018-05-10T03:50:49.989Z,97367.61
2018-05-10T03:53:16.511Z,97369.02
2018-05-10T03:55:43.056Z,97365.28
2018-05-10T03:58:09.500Z,97369.70
2018-05-10T04:00:36.465Z,97373.81
2018-05-10T04:06:49.383Z,97373.63
2018-05-10T04:09:34.254Z,97371.89
2018-05-10T04:12:00.679Z,97371.37
2018-05-10T04:14:27.054Z,97378.97
2018-05-10T04:16:54.205Z,97377.77
2018-05-10T04:19:21.495Z,97388.20
2018-05-10T04:21:47.976Z,97387.39
2018-05-10T04:24:14.441Z,97390.34
2018-05-10T04:26:40.884Z,97392.80
2018-05-10T04:29:07.315Z,97390.74
2018-05-10T04:31:33.721Z,97390.38
2018-05-10T04:34:00.161Z,97397.92
2018-05-10T04:36:27.330Z,97401.77
2018-05-10T04:38:53.733Z,97394.22
2018-05-10T04:41:20.193Z,97393.87
2018-05-10T04:43:47.354Z,97397.81
2018-05-10T04:46:13.869Z,97396.06
2018-05-10T04:48:41.006Z,97397.98
2018-05-10T04:51:09.173Z,97390.02
2018-05-10T04:53:35.548Z,97391.70
2018-05-10T04:56:02.006Z,97401.91
2018-05-10T04:58:28.418Z,97398.23
2018-05-10T05:00:54.810Z,97406.79
2018-05-10T05:03:22.702Z,97408.73
2018-05-10T05:05:49.817Z,97413.23
2018-05-10T05:08:16.266Z,97417.51
2018-05-10T05:10:43.414Z,97415.80
2018-05-10T05:13:10.608Z,97416.41
2018-05-10T05:15:36.996Z,97415.91
2018-05-10T05:18:04.178Z,97420.70
2018-05-10T05:20:30.601Z,97426.45
2018-05-10T05:22:57.024Z,97424.42
2018-05-10T05:25:23.451Z,97426.51
2018-05-10T05:27:50.601Z,97433.77
2018-05-10T05:30:17.791Z,97436.34
2018-05-10T05:32:44.257Z,97440.42
2018-05-10T05:35:10.668Z,97443.70
2018-05-10T05:37:37.365Z,97447.34
2018-05-10T05:40:04.514Z,97448.90
2018-05-10T05:42:31.045Z,97458.23
2018-05-10T05:44:58.246Z,97460.40
2018-05-10T05:47:24.860Z,97453.63
2018-05-10T05:49:51.594Z,97459.06
2018-05-10T05:52:18.214Z,97457.47
2018-05-10T05:54:45.555Z,97466.95
2018-05-10T05:57:12.705Z,97463.56
2018-05-10T05:59:39.862Z,97467.96
2018-05-10T06:02:07.105Z,97462.96
2018-05-10T06:04:34.279Z,97471.78
2018-05-10T06:07:00.763Z,97471.25
2018-05-10T06:09:27.280Z,97476.67
2018-05-10T06:11:53.754Z,97493.20
2018-05-10T06:14:21.236Z,97494.41
2018-05-10T06:16:47.776Z,97495.83
2018-05-10T06:19:14.449Z,97496.72
2018-05-10T06:21:40.953Z,97503.84
2018-05-10T06:24:07.466Z,97504.24
2018-05-10T06:26:34.849Z,97509.22
2018-05-10T06:29:01.368Z,97508.16
2018-05-10T06:31:27.798Z,97511.28
2018-05-10T06:33:54.251Z,97507.19
2018-05-10T06:36:20.705Z,97509.06
2018-05-10T06:38:47.165Z,97513.11
2018-05-10T06:41:13.575Z,97513.84
2018-05-10T06:43:40.101Z,97515.28
2018-05-10T06:46:06.758Z,97521.01
2018-05-10T06:48:33.226Z,97525.86
2018-05-10T06:51:00.518Z,97526.70
2018-05-10T06:53:26.915Z,97528.59
2018-05-10T06:55:54.132Z,97536.14
2018-05-10T06:58:20.514Z,97540.27
2018-05-10T07:00:46.959Z,97539.56
2018-05-10T07:03:13.536Z,97543.58
2018-05-10T07:05:40.609Z,97546.84
2018-05-10T07:08:10.314Z,97550.66
2018-05-10T07:10:38.269Z,97551.47
2018-05-10T07:13:04.841Z,97556.76
2018-05-10T07:15:35.328Z,97547.34
2018-05-10T07:18:01.851Z,97551.88
2018-05-10T07:20:28.251Z,97560.18
2018-05-10T07:22:54.708Z,97556.12
2018-05-10T07:25:21.308Z,97560.09
2018-05-10T07:27:47.668Z,97555.03
2018-05-10T07:30:14.102Z,97564.05
2018-05-10T07:32:40.504Z,97569.33
2018-05-10T07:35:06.941Z,97575.97
2018-05-10T07:37:33.493Z,97577.29
2018-05-10T07:39:59.878Z,97581.01
2018-05-10T07:42:26.335Z,97590.50
2018-05-10T07:44:52.794Z,97587.54
2018-05-10T07:47:19.253Z,97585.87
2018-05-10T07:49:45.767Z,97590.48
2018-05-10T07:52:12.853Z,97599.45
2018-05-10T07:54:39.525Z,97606.70
2018-05-10T07:57:05.926Z,97614.69
2018-05-10T07:59:32.345Z,97621.32
2018-05-10T08:01:58.867Z,97623.26
2018-05-10T08:04:25.388Z,97632.90
2018-05-10T08:06:52.317Z,97637.00
2018-05-10T08:09:18.766Z,97640.01
2018-05-10T08:11:45.296Z,97650.71
2018-05-10T08:14:11.690Z,97650.06
2018-05-10T08:16:39.056Z,97648.61
2018-05-10T08:19:06.309Z,97655.83
2018-05-10T08:21:33.901Z,97662.65
2018-05-10T08:24:00.848Z,97664.98
2018-05-10T08:26:27.389Z,97671.97
2018-05-10T08:28:54.094Z,97667.23
2018-05-10T08:31:22.313Z,97669.84
2018-05-10T08:33:49.817Z,97680.75
2018-05-10T08:36:17.552Z,97686.31
2018-05-10T08:38:45.751Z,97693.02
2018-05-10T08:41:12.962Z,97688.27
2018-05-10T08:43:40.026Z,97687.22
2018-05-10T08:46:07.479Z,97689.58
2018-05-10T08:48:34.304Z,97698.01
2018-05-10T08:51:01.221Z,97699.95
2018-05-10T08:53:27.683Z,97709.97
2018-05-10T08:55:54.102Z,97715.98
2018-05-10T08:58:20.701Z,97716.06
2018-05-10T09:00:47.881Z,97722.25
2018-05-10T09:03:14.355Z,97730.33
2018-05-10T09:05:40.911Z,97736.47
2018-05-10T09:08:08.239Z,97738.14
2018-05-10T09:10:34.901Z,97739.16
2018-05-10T09:13:03.185Z,97737.27
2018-05-10T09:15:30.504Z,97748.94
2018-05-10T09:17:56.901Z,97757.32
2018-05-10T09:20:23.748Z,97762.83
2018-05-10T09:22:50.452Z,97770.55
2018-05-10T09:25:16.892Z,97777.39
2018-05-10T09:27:45.274Z,97765.80
2018-05-10T09:30:12.758Z,97769.69
2018-05-10T09:32:39.326Z,97781.08
2018-05-10T09:35:06.237Z,97787.21
2018-05-10T09:37:33.102Z,97798.56
2018-05-10T09:39:59.562Z,97801.24
2018-05-10T09:42:27.306Z,97797.52
2018-05-10T09:44:54.738Z,97796.52
2018-05-10T09:47:21.198Z,97802.99
2018-05-10T09:49:48.222Z,97801.05
2018-05-10T09:52:14.684Z,97811.09
2018-05-10T09:54:41.455Z,97800.17
2018-05-10T09:57:08.627Z,97802.67
2018-05-10T09:59:35.250Z,97806.59
2018-05-10T10:02:01.732Z,97810.80
2018-05-10T10:04:28.220Z,97802.64
2018-05-10T10:06:54.792Z,97802.27
2018-05-10T10:09:21.251Z,97811.03
2018-05-10T10:11:47.873Z,97808.21
2018-05-10T10:14:14.264Z,97816.03
2018-05-10T10:16:40.776Z,97812.20
2018-05-10T10:19:08.137Z,97820.93
2018-05-10T10:21:34.755Z,97821.07
2018-05-10T10:24:02.244Z,97827.09
2018-05-10T10:26:28.666Z,97823.36
2018-05-10T10:28:55.971Z,97830.48
2018-05-10T10:31:22.628Z,97828.52
2018-05-10T10:33:49.121Z,97829.98
2018-05-10T10:36:15.554Z,97834.30
2018-05-10T10:38:42.028Z,97833.25
2018-05-10T10:41:09.525Z,97839.16
2018-05-10T10:43:36.408Z,97837.33
2018-05-10T10:46:02.883Z,97841.66
2018-05-10T10:48:29.622Z,97833.92
2018-05-10T10:50:57.001Z,97833.95
2018-05-10T10:53:23.398Z,97841.03
2018-05-10T10:55:50.180Z,97839.91
2018-05-10T10:58:16.681Z,97841.82
2018-05-10T11:00:43.106Z,97841.09
2018-05-10T11:03:10.456Z,97845.24
2018-05-10T11:05:36.958Z,97851.26
2018-05-10T11:08:03.590Z,97840.20
2018-05-10T11:10:30.163Z,97845.47
2018-05-10T11:12:57.009Z,97847.19
2018-05-10T11:15:24.749Z,97847.33
2018-05-10T11:17:51.405Z,97846.33
2018-05-10T11:20:17.923Z,97858.41
2018-05-10T11:22:44.457Z,97861.84
2018-05-10T11:25:11.174Z,97872.56
2018-05-10T11:27:37.664Z,97871.39
2018-05-10T11:30:04.237Z,97874.94
2018-05-10T11:32:31.080Z,97892.59
2018-05-10T11:34:57.469Z,97882.87
2018-05-10T11:37:24.124Z,97900.19
2018-05-10T11:39:51.115Z,97899.42
2018-05-10T11:42:17.706Z,97893.36
2018-05-10T11:44:44.983Z,97891.14
2018-05-10T11:47:11.745Z,97893.44
2018-05-10T11:49:38.383Z,97900.02
2018-05-10T11:52:05.115Z,97901.94
2018-05-10T11:54:31.817Z,97895.67
2018-05-10T11:56:58.962Z,97897.07
2018-05-10T11:59:26.122Z,97907.66
2018-05-10T12:01:53.342Z,97897.37
2018-05-10T12:04:19.851Z,97909.35
2018-05-10T12:06:46.505Z,97908.75
2018-05-10T12:09:12.997Z,97913.00
2018-05-10T12:11:39.400Z,97918.03
2018-05-10T12:14:06.504Z,97922.42
2018-05-10T12:16:32.954Z,97911.53
2018-05-10T12:18:59.418Z,97918.05
2018-05-10T12:21:26.601Z,97914.66
2018-05-10T12:23:53.015Z,97918.34
2018-05-10T12:26:20.188Z,97921.41
2018-05-10T12:28:46.662Z,97923.49
2018-05-10T12:31:13.265Z,97923.49
2018-05-10T12:33:39.882Z,97920.70
2018-05-10T12:36:06.414Z,97922.61
2018-05-10T12:38:33.585Z,97928.02
2018-05-10T12:41:00.655Z,97921.20
2018-05-10T12:43:27.756Z,97918.38
2018-05-10T12:45:54.985Z,97916.59
2018-05-10T12:48:21.480Z,97921.70
2018-05-10T12:50:48.061Z,97927.67
2018-05-10T12:53:14.586Z,97931.42
2018-05-10T12:55:41.057Z,97937.56
2018-05-10T12:58:07.443Z,97940.12
2018-05-10T13:00:34.112Z,97950.51
2018-05-10T13:03:00.663Z,97951.84
2018-05-10T13:05:28.029Z,97955.67
2018-05-10T13:07:54.641Z,97956.84
2018-05-10T13:10:21.085Z,97954.51
2018-05-10T13:12:48.308Z,97953.54
2018-05-10T13:15:15.933Z,97958.17
2018-05-10T13:17:42.464Z,97970.94
2018-05-10T13:20:09.122Z,97958.61
2018-05-10T13:22:37.069Z,97962.19
2018-05-10T13:25:03.597Z,97970.05
2018-05-10T13:27:30.456Z,97970.64
2018-05-10T13:29:56.945Z,97977.28
2018-05-10T13:32:24.317Z,97975.59
2018-05-10T13:34:51.377Z,97980.69
2018-05-10T13:37:17.925Z,97983.07
2018-05-10T13:39:44.493Z,97991.98
2018-05-10T13:42:11.066Z,97995.27
2018-05-10T13:44:37.722Z,98002.42
2018-05-10T13:47:04.253Z,98006.14
2018-05-10T13:49:30.652Z,98029.70
2018-05-10T13:51:57.965Z,98012.45
2018-05-10T13:54:24.439Z,98023.33
2018-05-10T13:56:52.846Z,98028.75
2018-05-10T13:59:19.502Z,98036.27
2018-05-10T14:01:46.268Z,98042.66
2018-05-10T14:04:13.209Z,98042.25
2018-05-10T14:06:39.720Z,98049.83
2018-05-10T14:09:06.239Z,98070.44
2018-05-10T14:11:32.820Z,98068.27
2018-05-10T14:14:00.235Z,98083.59
2018-05-10T14:16:26.773Z,98096.72
2018-05-10T14:18:54.765Z,98103.45
2018-05-10T14:21:21.565Z,98110.05
2018-05-10T14:23:48.774Z,98113.47
2018-05-10T14:26:15.503Z,98132.23
2018-05-10T14:28:42.767Z,98125.94
2018-05-10T14:31:09.296Z,98134.43
2018-05-10T14:33:35.719Z,98145.62
2018-05-10T14:36:02.525Z,98169.22
2018-05-10T14:38:29.034Z,98155.33
2018-05-10T14:40:55.596Z,98156.19
2018-05-10T14:43:22.209Z,98173.31
2018-05-10T14:45:50.367Z,98171.03
2018-05-10T14:48:17.849Z,98180.23
2018-05-10T14:50:45.042Z,98186.59
2018-05-10T14:53:11.487Z,98194.28
2018-05-10T14:55:37.922Z,98197.70
2018-05-10T14:58:04.617Z,98206.70
2018-05-10T15:00:31.243Z,98206.79
2018-05-10T15:02:57.733Z,98210.11
2018-05-10T15:05:24.532Z,98221.03
2018-05-10T15:07:51.188Z,98239.13
2018-05-10T15:10:17.651Z,98235.41
2018-05-10T15:12:44.077Z,98248.43
2018-05-10T15:15:10.526Z,98258.23
2018-05-10T15:17:37.014Z,98254.44
2018-05-10T15:20:03.751Z,98257.84
2018-05-10T15:22:30.334Z,98267.95
2018-05-10T15:24:57.649Z,98266.44
2018-05-10T15:27:25.092Z,98267.03
2018-05-10T15:29:51.597Z,98270.15
2018-05-10T15:32:18.931Z,98268.75
2018-05-10T15:34:45.571Z,98279.76
2018-05-10T15:37:12.028Z,98290.25
2018-05-10T15:39:39.781Z,98278.73
2018-05-10T15:42:06.946Z,98287.48
2018-05-10T15:44:34.262Z,98279.67
2018-05-10T15:47:00.938Z,98284.16
2018-05-10T15:49:28.320Z,98290.94
2018-05-10T15:51:54.732Z,98289.89
2018-05-10T15:54:21.868Z,98299.19
2018-05-10T15:56:49.325Z,98299.12
2018-05-10T15:59:16.803Z,98301.95
2018-05-10T16:01:43.237Z,98307.69
2018-05-10T16:04:10.933Z,98309.04
2018-05-10T16:06:37.810Z,98316.95
2018-05-10T16:09:06.094Z,98315.30
2018-05-10T16:11:32.710Z,98319.19
2018-05-10T16:13:59.197Z,98324.70
2018-05-10T16:16:26.343Z,98331.09
2018-05-10T16:18:53.029Z,98338.52
2018-05-10T16:21:19.519Z,98336.95
2018-05-10T16:23:46.203Z,98340.48
2018-05-10T16:26:13.519Z,98341.25
2018-05-10T16:28:40.056Z,98347.20
2018-05-10T16:31:06.507Z,98348.39
2018-05-10T16:33:33.140Z,98358.84
2018-05-10T16:35:59.634Z,98358.95
2018-05-10T16:38:26.969Z,98361.38
2018-05-10T16:40:54.559Z,98362.41
2018-05-10T16:43:21.811Z,98367.64
2018-05-10T16:45:49.227Z,98375.04
2018-05-10T16:48:15.675Z,98382.33
2018-05-10T16:50:44.141Z,98388.33
2018-05-10T16:53:12.062Z,98385.12
2018-05-10T16:55:39.860Z,98383.31
2018-05-10T16:58:07.654Z,98390.38
2018-05-10T17:00:35.226Z,98395.16
2018-05-10T17:03:03.324Z,98402.70
2018-05-10T17:05:30.706Z,98408.29
2018-05-10T17:07:59.533Z,98424.81
2018-05-10T17:10:27.670Z,98427.77
2018-05-10T17:12:55.252Z,98438.40
2018-05-10T17:15:22.542Z,98442.77
2018-05-10T17:17:49.734Z,98446.59
2018-05-10T17:20:16.694Z,98449.39
2018-05-10T17:22:43.926Z,98450.69
2018-05-10T17:25:10.555Z,98459.16
2018-05-10T17:27:37.312Z,98459.59
2018-05-10T17:30:03.786Z,98465.94
2018-05-10T17:32:31.090Z,98469.42
2018-05-10T17:34:57.491Z,98472.25
2018-05-10T17:37:24.005Z,98484.27
2018-05-10T17:39:51.485Z,98491.67
2018-05-10T17:42:17.979Z,98491.00
2018-05-10T17:44:44.466Z,98494.88
2018-05-10T17:47:11.108Z,98499.70
2018-05-10T17:49:37.770Z,98507.53
2018-05-10T17:52:04.313Z,98506.73
2018-05-10T17:54:31.001Z,98505.77
2018-05-10T17:56:57.898Z,98512.02
2018-05-10T17:59:25.102Z,98513.01
2018-05-10T18:01:51.891Z,98518.81
2018-05-10T18:04:18.684Z,98523.16
2018-05-10T18:06:48.322Z,98525.44
2018-05-10T18:09:15.924Z,98527.28
2018-05-10T18:11:43.833Z,98530.14
2018-05-10T18:14:10.603Z,98534.23
2018-05-10T18:16:37.648Z,98538.13
2018-05-10T18:19:04.419Z,98545.89
2018-05-10T18:21:32.104Z,98549.05
2018-05-10T18:26:31.936Z,98554.80
2018-05-10T18:28:58.411Z,98557.95
2018-05-10T18:31:25.956Z,98558.14
2018-05-10T18:33:52.779Z,98560.44
2018-05-10T18:36:19.659Z,98564.52
2018-05-10T18:38:47.583Z,98571.73
2018-05-10T18:41:14.501Z,98569.81
2018-05-10T18:43:41.910Z,98582.86
2018-05-10T18:46:08.354Z,98585.66
2018-05-10T18:48:35.026Z,98593.41
2018-05-10T18:51:02.053Z,98596.79
2018-05-10T18:53:29.215Z,98598.40
2018-05-10T18:55:56.554Z,98601.31
2018-05-10T18:58:23.078Z,98604.97
2018-05-10T19:00:49.590Z,98613.14
2018-05-10T19:03:16.103Z,98609.55
2018-05-10T19:05:44.719Z,98612.02
2018-05-10T19:08:11.235Z,98613.33
2018-05-10T19:10:38.147Z,98621.59
2018-05-10T19:13:04.674Z,98625.16
2018-05-10T19:15:32.127Z,98631.63
2018-05-10T19:17:58.719Z,98629.31
2018-05-10T19:20:25.487Z,98634.81
2018-05-10T19:22:52.107Z,98634.55
2018-05-10T19:25:18.664Z,98638.89
2018-05-10T19:27:45.750Z,98639.09
2018-05-10T19:30:14.175Z,98642.70
2018-05-10T19:32:41.128Z,98645.81
2018-05-10T19:35:07.594Z,98650.66
2018-05-10T19:37:34.037Z,98651.27
2018-05-10T19:40:01.517Z,98646.22
2018-05-10T19:42:27.989Z,98655.67
2018-05-10T19:44:54.429Z,98652.39
2018-05-10T19:47:20.885Z,98660.22
2018-05-10T19:49:48.249Z,98665.67
2018-05-10T19:52:15.557Z,98662.28
2018-05-10T19:54:42.015Z,98671.26
2018-05-10T19:57:08.525Z,98676.55
2018-05-10T19:59:35.082Z,98677.73
2018-05-10T20:02:01.477Z,98682.71
2018-05-10T20:04:28.020Z,98685.42
2018-05-10T20:06:54.975Z,98686.52
2018-05-10T20:09:21.338Z,98688.16
2018-05-10T20:11:47.937Z,98688.36
2018-05-10T20:14:14.901Z,98694.95
2018-05-10T20:16:41.406Z,98694.03
2018-05-10T20:19:07.879Z,98700.13
2018-05-10T20:21:36.344Z,98698.72
2018-05-10T20:24:03.552Z,98700.72
2018-05-10T20:26:32.557Z,98705.20
2018-05-10T20:29:01.758Z,98709.79
2018-05-10T20:31:28.217Z,98712.17
2018-05-10T20:33:54.710Z,98712.83
2018-05-10T20:36:21.972Z,98718.06
2018-05-10T20:38:48.546Z,98715.00
2018-05-10T20:41:14.999Z,98719.98
2018-05-10T20:43:41.527Z,98716.88
2018-05-10T20:46:08.050Z,98713.76
2018-05-10T20:48:34.525Z,98716.77
2018-05-10T20:51:01.894Z,98717.17
2018-05-10T20:53:28.464Z,98708.66
2018-05-10T20:55:54.946Z,98708.75
2018-05-10T20:58:22.078Z,98713.48
2018-05-10T21:00:49.486Z,98707.45
2018-05-10T21:03:15.963Z,98714.34
2018-05-10T21:05:42.437Z,98702.83
2018-05-10T21:08:08.850Z,98710.50
2018-05-10T21:10:36.515Z,98712.95
2018-05-10T21:13:02.970Z,98721.32
2018-05-10T21:15:29.502Z,98724.07
2018-05-10T21:17:55.903Z,98718.26
2018-05-10T21:20:22.391Z,98722.54
2018-05-10T21:22:48.837Z,98726.53
2018-05-10T21:25:15.404Z,98723.25
2018-05-10T21:27:42.553Z,98725.08
2018-05-10T21:30:09.006Z,98730.25
2018-05-10T21:32:35.518Z,98731.75
2018-05-10T21:35:03.777Z,98737.18
2018-05-10T21:37:30.431Z,98736.27
2018-05-10T21:39:56.871Z,98733.13
2018-05-10T21:42:24.906Z,98739.98
2018-05-10T21:44:51.596Z,98737.56
2018-05-10T21:47:18.335Z,98739.74
2018-05-10T21:50:02.269Z,98739.27
2018-05-10T21:52:29.505Z,98741.17
2018-05-10T21:54:55.959Z,98745.44
2018-05-10T21:57:23.434Z,98745.47
2018-05-10T21:59:49.902Z,98751.77
2018-05-10T22:02:19.552Z,98754.50
2018-05-10T22:04:46.739Z,98755.86
2018-05-10T22:07:13.226Z,98752.69
2018-05-10T22:09:39.858Z,98750.42
2018-05-10T22:12:06.298Z,98750.64
2018-05-10T22:14:33.069Z,98749.48
2018-05-10T22:16:59.509Z,98747.59
2018-05-10T22:19:26.202Z,98746.83
2018-05-10T22:21:53.467Z,98747.50
2018-05-10T22:24:21.383Z,98746.77
2018-05-10T22:26:47.839Z,98753.55
2018-05-10T22:29:15.458Z,98754.49
2018-05-10T22:31:41.967Z,98754.25
2018-05-10T22:34:09.374Z,98752.48
2018-05-10T22:36:35.849Z,98752.42
2018-05-10T22:39:17.359Z,98751.83
2018-05-10T22:41:44.563Z,98754.58
2018-05-10T22:44:11.359Z,98758.03
2018-05-10T22:46:37.793Z,98767.66
2018-05-10T22:49:04.398Z,98761.30
2018-05-10T22:51:30.870Z,98755.88
2018-05-10T22:53:57.469Z,98756.20
2018-05-10T22:56:24.693Z,98760.48
2018-05-10T22:58:51.384Z,98755.12
2018-05-10T23:01:18.972Z,98759.66
2018-05-10T23:03:45.460Z,98753.86
2018-05-10T23:06:12.031Z,98749.72
2018-05-10T23:08:38.446Z,98746.91
2018-05-10T23:11:05.787Z,98743.42
2018-05-10T23:13:33.095Z,98743.37
2018-05-10T23:15:59.598Z,98738.33
2018-05-10T23:18:26.067Z,98740.90
2018-05-10T23:20:52.803Z,98737.27
2018-05-10T23:23:26.428Z,98735.57
2018-05-10T23:25:53.262Z,98733.09
2018-05-10T23:28:19.737Z,98725.77
2018-05-10T23:30:46.925Z,98727.16
2018-05-10T23:33:13.516Z,98729.85
2018-05-10T23:35:40.825Z,98722.98
2018-05-10T23:38:08.247Z,98723.68
2018-05-10T23:40:34.781Z,98720.55
2018-05-10T23:43:01.225Z,98722.95
2018-05-10T23:45:27.659Z,98730.02
2018-05-10T23:47:54.062Z,98720.66
2018-05-10T23:50:21.209Z,98716.95
2018-05-10T23:52:47.662Z,98723.83
2018-05-10T23:55:14.199Z,98724.40
2018-05-10T23:57:40.635Z,98717.39
